Time;durP1;ratioP1;P1;durP2;ratioP2;P2;SDS_P1;SDS_P2;PMS_P1;PMS_P2;Temp;Humidity;BMP_temperature;BMP_pressure;BME280_temperature;BME280_humidity;BME280_pressure;Samples;Min_cycle;Max_cycle;Signal;HPM_P1;HPM_P2
2021/12/19 05:00:40;;;;;;;1.20;1.05;;;7.90;99.90;;;;;;5900220;23;20288;-70
2021/12/19 05:03:15;;;;;;;1.42;1.42;;;7.90;99.90;;;;;;5010870;28;20203;-70
2021/12/19 05:05:56;;;;;;;3.00;1.42;;;7.80;99.90;;;;;;5010781;28;20678;-70
2021/12/19 05:16:46;;;;;;;0.80;0.80;;;7.80;99.90;;;;;;4986348;23;20723;-72
2021/12/19 05:19:26;;;;;;;1.60;1.02;;;7.70;99.90;;;;;;4971297;28;20235;-72
2021/12/19 05:21:57;;;;;;;1.08;0.70;;;7.70;99.90;;;;;;4971309;28;20327;-72
2021/12/19 05:24:47;;;;;;;1.13;0.88;;;7.70;99.90;;;;;;4971268;28;20319;-71
2021/12/19 05:27:14;;;;;;;3.72;1.80;;;7.60;99.90;;;;;;4970502;28;20232;-72
2021/12/19 05:29:41;;;;;;;3.35;0.85;;;7.60;99.90;;;;;;4971430;28;20204;-71
2021/12/19 05:32:09;;;;;;;1.20;0.60;;;7.60;99.90;;;;;;4971329;28;20209;-72
2021/12/19 05:34:37;;;;;;;0.50;0.50;;;7.60;99.90;;;;;;4971212;28;20227;-71
2021/12/19 05:45:20;;;;;;;1.40;0.90;;;7.50;99.90;;;;;;4971344;28;20207;-72
2021/12/19 05:47:50;;;;;;;2.90;1.05;;;7.50;99.90;;;;;;4971815;28;20565;-72
2021/12/19 05:50:19;;;;;;;0.80;0.80;;;7.50;99.90;;;;;;4970937;28;20219;-73
2021/12/19 05:52:46;;;;;;;2.78;0.80;;;7.50;99.90;;;;;;4974838;28;20264;-73
2021/12/19 05:55:13;;;;;;;0.80;0.80;;;7.50;99.90;;;;;;4974771;28;20251;-72
2021/12/19 05:57:40;;;;;;;3.13;1.40;;;7.50;99.90;;;;;;4973738;28;20216;-73
2021/12/19 06:00:12;;;;;;;2.63;1.63;;;7.40;99.90;;;;;;4974402;28;20228;-73
2021/12/19 06:02:39;;;;;;;4.53;1.45;;;7.40;99.90;;;;;;4974571;28;20216;-73
2021/12/19 06:05:08;;;;;;;1.70;1.23;;;7.50;99.90;;;;;;4974568;28;20402;-72
2021/12/19 06:07:35;;;;;;;0.80;0.77;;;7.50;99.90;;;;;;4974473;28;20251;-72
2021/12/19 06:10:03;;;;;;;3.03;1.83;;;7.50;99.90;;;;;;4974558;28;20224;-71
2021/12/19 06:12:31;;;;;;;3.72;0.95;;;7.50;99.90;;;;;;4973528;28;20209;-71
2021/12/19 06:14:58;;;;;;;7.53;1.42;;;7.60;99.90;;;;;;4974874;28;20208;-72
2021/12/19 06:17:25;;;;;;;2.60;1.02;;;7.60;99.90;;;;;;4974223;28;20752;-72
2021/12/19 06:19:52;;;;;;;3.13;0.85;;;7.60;99.90;;;;;;4974170;28;20232;-73
2021/12/19 06:22:20;;;;;;;4.22;1.35;;;7.60;99.90;;;;;;4974097;28;20217;-73
2021/12/19 06:24:47;;;;;;;2.80;1.23;;;7.60;99.90;;;;;;4974352;28;20212;-72
2021/12/19 06:27:14;;;;;;;5.18;1.85;;;7.60;99.90;;;;;;4973497;28;20236;-72
2021/12/19 06:29:40;;;;;;;1.90;1.08;;;7.70;99.90;;;;;;4974197;28;20747;-73
2021/12/19 06:32:07;;;;;;;3.08;1.17;;;7.70;99.90;;;;;;4974051;28;20216;-72
2021/12/19 06:34:34;;;;;;;2.58;1.55;;;7.80;99.90;;;;;;4974021;28;20584;-71
2021/12/19 06:37:01;;;;;;;1.25;0.95;;;7.70;99.90;;;;;;4973741;28;20228;-70
2021/12/19 06:39:29;;;;;;;2.35;0.95;;;7.70;99.90;;;;;;4966931;28;20236;-71
2021/12/19 06:41:55;;;;;;;1.85;1.63;;;7.70;99.90;;;;;;4973481;28;20232;-71
2021/12/19 06:44:22;;;;;;;3.03;1.30;;;7.80;99.90;;;;;;4973333;28;20299;-70
2021/12/19 06:46:49;;;;;;;5.95;1.90;;;7.80;99.90;;;;;;4973957;28;20580;-71
2021/12/19 06:49:16;;;;;;;3.00;1.13;;;7.80;99.90;;;;;;4973728;28;20228;-71
2021/12/19 06:51:42;;;;;;;1.63;0.90;;;7.80;99.90;;;;;;4973664;28;20214;-71
2021/12/19 06:54:09;;;;;;;1.20;1.17;;;7.80;99.90;;;;;;4973516;28;20205;-72
2021/12/19 06:56:37;;;;;;;3.50;1.55;;;7.80;99.90;;;;;;4973585;28;20252;-72
2021/12/19 06:59:04;;;;;;;3.22;1.15;;;7.80;99.90;;;;;;4973131;28;20217;-73
2021/12/19 07:01:31;;;;;;;4.57;2.20;;;7.80;99.90;;;;;;4973157;28;20236;-73
2021/12/19 07:03:58;;;;;;;3.05;1.70;;;7.80;99.90;;;;;;4973600;28;20220;-73
2021/12/19 07:06:24;;;;;;;1.60;1.50;;;7.80;99.90;;;;;;4973629;28;20224;-73
2021/12/19 07:08:51;;;;;;;5.40;1.90;;;7.80;99.90;;;;;;4973639;28;20239;-73
2021/12/19 07:11:18;;;;;;;9.07;2.00;;;7.80;99.90;;;;;;4972899;28;20239;-72
2021/12/19 07:13:46;;;;;;;2.00;1.70;;;7.80;99.90;;;;;;4973052;28;20645;-73
2021/12/19 07:16:13;;;;;;;7.80;2.60;;;7.80;99.90;;;;;;4973473;28;20240;-73
2021/12/19 07:18:39;;;;;;;5.00;1.90;;;7.80;99.90;;;;;;4973327;28;20213;-71
2021/12/19 07:21:07;;;;;;;2.72;2.55;;;7.80;99.90;;;;;;4973031;28;20228;-72
2021/12/19 07:23:34;;;;;;;43.30;19.40;;;7.80;99.90;;;;;;4973352;28;20223;-73
2021/12/19 07:26:01;;;;;;;1.90;1.80;;;7.80;99.90;;;;;;4973437;28;20596;-73
2021/12/19 07:28:28;;;;;;;5.32;1.60;;;7.80;99.90;;;;;;4969996;28;20626;-72
2021/12/19 07:30:57;;;;;;;2.40;1.63;;;7.80;99.90;;;;;;4973028;28;20548;-71
2021/12/19 07:33:24;;;;;;;1.95;1.48;;;7.80;99.90;;;;;;4972998;28;20240;-70
2021/12/19 07:35:52;;;;;;;7.85;1.73;;;7.80;99.90;;;;;;4973185;28;20740;-71
2021/12/19 07:38:25;;;;;;;5.43;1.85;;;7.70;99.90;;;;;;4972792;28;20208;-71
2021/12/19 07:40:54;;;;;;;5.55;1.73;;;7.80;99.90;;;;;;4972971;28;20228;-71
2021/12/19 07:43:21;;;;;;;3.88;1.98;;;7.80;99.90;;;;;;4971919;28;20240;-72
2021/12/19 07:45:48;;;;;;;1.83;1.10;;;7.80;99.90;;;;;;4972920;28;20236;-71
2021/12/19 07:48:17;;;;;;;2.15;1.60;;;7.80;99.90;;;;;;4972575;28;20205;-72
2021/12/19 07:50:43;;;;;;;2.38;1.05;;;7.80;99.90;;;;;;4973031;28;20215;-71
2021/12/19 07:53:10;;;;;;;3.22;0.90;;;7.80;99.90;;;;;;4972807;28;20216;-71
2021/12/19 07:55:37;;;;;;;11.98;1.40;;;7.80;99.90;;;;;;4972952;28;20233;-71
2021/12/19 07:58:04;;;;;;;2.60;1.25;;;7.80;99.90;;;;;;4972026;28;20584;-70
2021/12/19 08:00:31;;;;;;;5.18;1.42;;;7.80;99.90;;;;;;4973908;28;20251;-72
2021/12/19 08:02:58;;;;;;;1.83;1.65;;;7.80;99.90;;;;;;4973737;28;20473;-72
2021/12/19 08:05:26;;;;;;;4.25;3.35;;;7.80;99.90;;;;;;4972617;28;20205;-71
2021/12/19 08:07:59;;;;;;;5.07;1.30;;;7.80;99.90;;;;;;4972712;28;20205;-71
2021/12/19 08:13:11;;;;;;;4.03;1.60;;;7.90;99.90;;;;;;4971094;28;20255;-71
2021/12/19 08:15:38;;;;;;;4.40;1.75;;;7.90;99.90;;;;;;4972374;28;20712;-72
2021/12/19 08:18:05;;;;;;;5.22;3.20;;;7.90;99.90;;;;;;4964330;28;20204;-72
2021/12/19 08:20:33;;;;;;;5.45;1.10;;;7.90;99.90;;;;;;4972063;28;20334;-72
2021/12/19 08:23:00;;;;;;;1.77;1.10;;;7.90;99.90;;;;;;4972057;28;20235;-72
2021/12/19 08:25:27;;;;;;;2.13;1.95;;;7.90;99.90;;;;;;4972195;28;20212;-72
2021/12/19 08:27:56;;;;;;;5.55;1.10;;;7.90;99.90;;;;;;4971015;28;20605;-72
2021/12/19 08:30:24;;;;;;;1.60;1.50;;;7.90;99.90;;;;;;4971912;28;20584;-72
2021/12/19 08:32:52;;;;;;;3.15;1.77;;;7.90;99.90;;;;;;4972091;28;20658;-71
2021/12/19 08:35:20;;;;;;;4.10;2.30;;;7.90;99.90;;;;;;4971981;28;20204;-72
2021/12/19 08:37:48;;;;;;;10.15;2.97;;;8.00;99.90;;;;;;4971821;28;20212;-72
2021/12/19 08:40:15;;;;;;;4.70;2.20;;;8.00;99.90;;;;;;4971476;28;20212;-72
2021/12/19 08:42:42;;;;;;;1.88;1.75;;;8.00;99.90;;;;;;4971138;28;20219;-72
2021/12/19 08:45:10;;;;;;;3.03;1.75;;;8.00;99.90;;;;;;4972189;28;20212;-72
2021/12/19 08:47:37;;;;;;;5.93;1.67;;;8.00;99.90;;;;;;4971859;28;20212;-72
2021/12/19 08:50:05;;;;;;;2.90;1.50;;;8.00;99.90;;;;;;4970516;28;20215;-72
2021/12/19 08:52:32;;;;;;;6.50;3.60;;;8.00;99.90;;;;;;4971570;28;20197;-72
2021/12/19 08:55:00;;;;;;;2.55;1.35;;;8.00;99.90;;;;;;4971758;28;20890;-72
2021/12/19 08:57:27;;;;;;;2.67;2.30;;;8.00;99.90;;;;;;4970930;28;20354;-69
2021/12/19 08:59:54;;;;;;;5.15;1.92;;;8.00;99.90;;;;;;4971379;28;20232;-72
2021/12/19 09:02:21;;;;;;;7.70;2.25;;;8.10;99.90;;;;;;4971689;28;20596;-73
2021/12/19 09:04:48;;;;;;;3.80;1.77;;;8.10;99.90;;;;;;4971887;28;20212;-71
2021/12/19 09:07:17;;;;;;;1.80;1.70;;;8.10;99.90;;;;;;4971693;28;20224;-72
2021/12/19 09:09:44;;;;;;;4.90;1.70;;;8.10;99.90;;;;;;4971739;28;20307;-72
2021/12/19 09:12:13;;;;;;;4.95;1.80;;;8.10;99.90;;;;;;4971045;28;20213;-72
2021/12/19 09:14:40;;;;;;;1.90;1.77;;;8.10;99.90;;;;;;4971949;28;20295;-71
2021/12/19 09:17:07;;;;;;;2.83;1.30;;;8.10;99.90;;;;;;4972077;28;20612;-72
2021/12/19 09:19:34;;;;;;;6.25;1.77;;;8.10;99.90;;;;;;4971814;28;20535;-71
2021/12/19 09:22:01;;;;;;;5.25;1.70;;;8.10;99.90;;;;;;4971453;28;20228;-71
2021/12/19 09:24:27;;;;;;;2.10;1.88;;;8.10;99.90;;;;;;4972876;28;20212;-71
2021/12/19 09:26:54;;;;;;;6.97;2.22;;;8.10;99.90;;;;;;4975160;28;20579;-70
2021/12/19 09:29:26;;;;;;;3.17;2.25;;;8.10;99.90;;;;;;4974894;28;20220;-71
2021/12/19 09:31:53;;;;;;;3.90;1.50;;;8.10;99.90;;;;;;4975114;28;20201;-71
2021/12/19 09:34:19;;;;;;;3.55;1.50;;;8.20;99.90;;;;;;4975082;28;20208;-71
2021/12/19 09:36:46;;;;;;;4.43;1.77;;;8.20;99.90;;;;;;4974964;28;20586;-70
2021/12/19 09:39:13;;;;;;;5.18;1.70;;;8.20;99.90;;;;;;4970471;28;20300;-71
2021/12/19 09:41:44;;;;;;;2.10;1.90;;;8.20;99.90;;;;;;4974266;28;20326;-71
2021/12/19 09:44:11;;;;;;;3.33;2.10;;;8.20;99.90;;;;;;4974401;28;20303;-71
2021/12/19 09:46:44;;;;;;;2.88;1.45;;;8.30;99.90;;;;;;4974945;28;20265;-72
2021/12/19 09:49:13;;;;;;;1.55;1.40;;;8.30;99.90;;;;;;4974856;28;20299;-72
2021/12/19 09:51:40;;;;;;;5.25;1.70;;;8.30;99.90;;;;;;4974734;28;20247;-72
2021/12/19 09:54:08;;;;;;;8.15;1.70;;;8.30;99.90;;;;;;4974877;28;20637;-71
2021/12/19 09:56:35;;;;;;;5.47;2.15;;;8.30;99.90;;;;;;4974290;28;20236;-71
2021/12/19 09:59:04;;;;;;;1.90;1.80;;;8.30;99.90;;;;;;4974324;28;20331;-72
2021/12/19 10:01:31;;;;;;;4.47;1.80;;;8.30;99.90;;;;;;4974187;28;20227;-71
2021/12/19 10:03:59;;;;;;;7.20;2.22;;;8.40;99.90;;;;;;4974349;28;20302;-71
2021/12/19 10:06:27;;;;;;;4.88;2.00;;;8.40;99.90;;;;;;4974397;28;20229;-71
2021/12/19 10:09:09;;;;;;;2.70;2.00;;;8.40;99.90;;;;;;4974342;28;20308;-72
2021/12/19 10:11:47;;;;;;;4.13;1.40;;;8.40;99.90;;;;;;4973845;28;20215;-71
2021/12/19 10:14:25;;;;;;;2.30;1.80;;;8.40;99.90;;;;;;4973910;28;20957;-72
2021/12/19 10:16:52;;;;;;;5.50;2.28;;;8.40;99.90;;;;;;4968997;28;20239;-72
2021/12/19 10:19:21;;;;;;;2.78;1.95;;;8.40;99.90;;;;;;4971672;28;20205;-71
2021/12/19 10:21:48;;;;;;;7.13;1.85;;;8.50;99.90;;;;;;4974031;28;20232;-71
2021/12/19 10:24:31;;;;;;;7.07;3.05;;;8.50;99.90;;;;;;4974659;28;20227;-72
2021/12/19 10:26:58;;;;;;;4.93;2.10;;;8.50;99.90;;;;;;4973867;28;20255;-72
2021/12/19 10:29:43;;;;;;;3.78;1.85;;;8.50;99.90;;;;;;4973809;28;20236;-73
2021/12/19 10:32:09;;;;;;;8.02;2.80;;;8.50;99.90;;;;;;4974231;28;20208;-72
2021/12/19 10:34:38;;;;;;;6.05;3.42;;;8.50;99.90;;;;;;4973910;28;20212;-72
2021/12/19 10:37:05;;;;;;;5.70;3.40;;;8.60;99.90;;;;;;4973013;28;20735;-72
2021/12/19 10:39:39;;;;;;;3.67;2.60;;;8.60;99.90;;;;;;4973913;28;20295;-71
2021/12/19 10:42:10;;;;;;;4.28;2.03;;;8.60;99.90;;;;;;4973121;28;20227;-72
2021/12/19 10:47:24;;;;;;;6.88;2.00;;;8.60;99.90;;;;;;4973710;28;20224;-71
2021/12/19 10:49:52;;;;;;;1.67;1.58;;;8.60;99.90;;;;;;4972650;28;20238;-73
2021/12/19 10:52:33;;;;;;;3.45;1.85;;;8.60;99.90;;;;;;4973771;28;20236;-72
2021/12/19 10:55:02;;;;;;;4.28;2.30;;;8.60;99.90;;;;;;4973525;28;20224;-71
2021/12/19 10:57:34;;;;;;;3.75;1.85;;;8.70;99.90;;;;;;4972724;28;20237;-71
2021/12/19 11:00:01;;;;;;;4.05;2.17;;;8.60;99.90;;;;;;4973547;28;20212;-71
2021/12/19 11:02:36;;;;;;;3.70;1.63;;;8.70;99.90;;;;;;4973805;28;20244;-71
2021/12/19 11:05:05;;;;;;;4.72;1.00;;;8.70;99.90;;;;;;4974240;28;20681;-72
2021/12/19 11:07:32;;;;;;;5.10;2.22;;;8.70;99.90;;;;;;4974547;28;20244;-72
2021/12/19 11:09:58;;;;;;;4.20;1.48;;;8.70;99.90;;;;;;4973769;28;20208;-71
2021/12/19 11:12:25;;;;;;;5.35;2.30;;;8.70;99.90;;;;;;4972616;28;20216;-72
2021/12/19 11:14:52;;;;;;;10.13;2.22;;;8.70;99.90;;;;;;4973602;28;20650;-73
2021/12/19 11:17:21;;;;;;;3.20;1.60;;;8.70;99.90;;;;;;5008518;23;20231;-70
2021/12/19 11:19:49;;;;;;;4.22;1.88;;;8.70;99.90;;;;;;5012059;28;20207;-70
2021/12/19 11:22:24;;;;;;;7.00;2.00;;;8.80;99.90;;;;;;5012044;28;20289;-70
2021/12/19 11:24:51;;;;;;;4.20;1.77;;;8.80;99.90;;;;;;5011953;28;20525;-69
2021/12/19 11:27:19;;;;;;;3.25;1.70;;;8.80;99.90;;;;;;5011472;28;20318;-69
2021/12/19 11:29:46;;;;;;;4.93;2.40;;;8.80;99.90;;;;;;5012125;28;20290;-69
2021/12/19 11:32:18;;;;;;;5.05;2.15;;;8.80;99.90;;;;;;5011604;28;20211;-70
2021/12/19 11:34:57;;;;;;;1.92;1.40;;;8.80;99.90;;;;;;5011897;28;20215;-70
2021/12/19 11:37:28;;;;;;;12.43;3.03;;;8.80;99.90;;;;;;5011336;28;20234;-69
2021/12/19 11:39:56;;;;;;;3.00;1.77;;;8.80;99.90;;;;;;5006171;28;20210;-70
2021/12/19 11:42:30;;;;;;;3.88;2.20;;;8.80;99.90;;;;;;5010792;28;20318;-71
2021/12/19 11:45:11;;;;;;;5.43;2.38;;;8.80;99.90;;;;;;5011841;28;20207;-69
2021/12/19 11:47:42;;;;;;;4.05;1.63;;;8.80;99.90;;;;;;5010647;28;20226;-68
2021/12/19 11:50:19;;;;;;;8.25;2.50;;;8.80;99.90;;;;;;5011768;28;20195;-68
2021/12/19 11:52:48;;;;;;;3.05;1.85;;;8.80;99.90;;;;;;5011822;28;20199;-68
2021/12/19 11:55:24;;;;;;;1.95;1.85;;;8.80;99.90;;;;;;5011774;28;20207;-67
2021/12/19 11:58:28;;;;;;;4.47;1.52;;;8.80;99.90;;;;;;5010679;28;20594;-69
2021/12/19 12:00:58;;;;;;;2.42;2.33;;;8.80;99.90;;;;;;5011376;28;20353;-69
2021/12/19 12:03:27;;;;;;;3.50;1.95;;;8.80;99.90;;;;;;5010994;28;20562;-69
2021/12/19 12:06:15;;;;;;;4.68;2.58;;;8.80;99.90;;;;;;5011528;28;20288;-69
2021/12/19 12:09:19;;;;;;;4.70;2.10;;;8.80;99.90;;;;;;5010848;28;20207;-69
2021/12/19 12:12:31;;;;;;;3.15;2.13;;;8.80;99.90;;;;;;5010794;28;20222;-70
2021/12/19 12:15:08;;;;;;;3.10;2.00;;;8.80;99.90;;;;;;5011188;28;20210;-69
2021/12/19 12:17:42;;;;;;;3.13;2.90;;;8.80;99.90;;;;;;5002735;28;20322;-69
2021/12/19 12:20:18;;;;;;;5.15;1.95;;;8.80;99.90;;;;;;5010906;28;20211;-69
2021/12/19 12:22:54;;;;;;;5.47;2.13;;;8.90;99.90;;;;;;5011026;28;20318;-69
2021/12/19 12:25:32;;;;;;;5.80;2.20;;;8.90;99.90;;;;;;5011046;28;20325;-69
2021/12/19 12:28:04;;;;;;;7.18;3.03;;;8.90;99.90;;;;;;5010076;28;20711;-69
2021/12/19 12:30:33;;;;;;;6.38;2.40;;;8.90;99.90;;;;;;5010908;28;20298;-69
2021/12/19 12:33:02;;;;;;;2.00;1.90;;;8.90;99.90;;;;;;5010843;28;20580;-68
2021/12/19 12:35:31;;;;;;;5.47;2.63;;;8.90;99.90;;;;;;5010880;28;20293;-69
2021/12/19 12:37:58;;;;;;;7.25;2.72;;;8.90;99.90;;;;;;5010533;28;20318;-69
2021/12/19 12:40:30;;;;;;;2.80;2.28;;;8.90;99.90;;;;;;5010474;28;20214;-68
2021/12/19 12:43:02;;;;;;;4.88;2.08;;;8.90;99.90;;;;;;5009410;28;20686;-69
2021/12/19 12:45:30;;;;;;;6.00;3.10;;;8.90;99.90;;;;;;5010877;28;20211;-70
2021/12/19 12:47:57;;;;;;;27.00;15.35;;;8.90;99.90;;;;;;5010059;28;20234;-69
2021/12/19 12:50:24;;;;;;;14.30;5.45;;;8.90;99.90;;;;;;5009372;28;20207;-70
2021/12/19 12:52:51;;;;;;;5.05;3.47;;;8.90;99.90;;;;;;5010729;28;20558;-70
2021/12/19 12:55:18;;;;;;;5.63;2.90;;;8.90;99.90;;;;;;5010784;28;20671;-68
2021/12/19 12:57:46;;;;;;;3.60;2.03;;;8.90;99.90;;;;;;5009770;28;20313;-68
2021/12/19 13:00:21;;;;;;;12.27;2.17;;;8.90;99.90;;;;;;5012910;28;20222;-67
2021/12/19 13:02:58;;;;;;;7.43;3.08;;;8.90;99.90;;;;;;5014393;28;20309;-68
2021/12/19 13:05:25;;;;;;;4.53;2.67;;;8.90;99.90;;;;;;5014918;28;20210;-67
2021/12/19 13:07:51;;;;;;;4.57;1.85;;;8.90;99.90;;;;;;5014381;28;20222;-69
2021/12/19 13:10:18;;;;;;;2.97;2.40;;;8.90;99.90;;;;;;5014714;28;20209;-69
2021/12/19 13:12:47;;;;;;;7.13;2.42;;;8.90;99.90;;;;;;5013860;28;20651;-69
2021/12/19 13:15:15;;;;;;;4.28;2.65;;;8.90;99.90;;;;;;5014618;28;20218;-69
2021/12/19 13:17:44;;;;;;;5.28;2.20;;;8.90;99.90;;;;;;5014414;28;20248;-69
2021/12/19 13:20:12;;;;;;;3.75;2.20;;;8.90;99.90;;;;;;5014637;28;20246;-69
2021/12/19 13:22:43;;;;;;;4.10;1.95;;;8.90;99.90;;;;;;5014368;28;20699;-69
2021/12/19 13:25:12;;;;;;;5.40;2.15;;;8.90;99.90;;;;;;5014481;28;20204;-69
2021/12/19 13:27:40;;;;;;;5.72;2.38;;;8.90;99.90;;;;;;5013098;28;20643;-68
2021/12/19 13:30:20;;;;;;;8.70;3.95;;;8.90;99.90;;;;;;5013917;28;20215;-68
2021/12/19 13:32:52;;;;;;;5.45;1.33;;;8.90;99.90;;;;;;5014313;28;20202;-69
2021/12/19 13:35:24;;;;;;;4.40;2.47;;;8.90;99.90;;;;;;5014220;28;20225;-68
2021/12/19 13:37:58;;;;;;;5.78;1.90;;;8.90;99.90;;;;;;5009771;28;20282;-70
2021/12/19 13:40:28;;;;;;;7.25;2.70;;;8.90;99.90;;;;;;5012100;28;20626;-69
2021/12/19 13:42:56;;;;;;;9.18;2.40;;;8.90;99.90;;;;;;5013053;28;20231;-70
2021/12/19 13:45:42;;;;;;;8.63;2.72;;;8.90;99.90;;;;;;5014124;28;20527;-69
2021/12/19 13:48:13;;;;;;;4.78;1.77;;;8.90;99.90;;;;;;5013873;28;20253;-69
2021/12/19 13:50:43;;;;;;;8.00;2.00;;;8.90;99.90;;;;;;5013784;28;20215;-69
2021/12/19 13:53:13;;;;;;;5.93;2.70;;;8.90;99.90;;;;;;5015571;28;20284;-70
2021/12/19 13:55:48;;;;;;;10.38;4.50;;;8.80;99.90;;;;;;5016546;28;20233;-69
2021/12/19 13:58:16;;;;;;;6.50;2.75;;;8.80;99.90;;;;;;5014419;28;20223;-70
2021/12/19 14:00:46;;;;;;;7.43;2.60;;;8.80;99.90;;;;;;5014163;28;20269;-70
2021/12/19 14:03:13;;;;;;;6.45;2.95;;;8.80;99.90;;;;;;5013807;28;20318;-69
2021/12/19 14:05:43;;;;;;;7.00;2.75;;;8.80;99.90;;;;;;5014494;28;20207;-68
2021/12/19 14:08:31;;;;;;;6.25;3.47;;;8.80;99.90;;;;;;5014072;28;20424;-68
2021/12/19 14:11:06;;;;;;;6.38;2.50;;;8.80;99.90;;;;;;5012332;28;20211;-68
2021/12/19 14:13:35;;;;;;;5.85;3.97;;;8.80;99.90;;;;;;5012558;28;20211;-69
2021/12/19 14:16:05;;;;;;;2.00;1.70;;;8.70;99.90;;;;;;5013616;28;20204;-70
2021/12/19 14:18:40;;;;;;;5.95;2.25;;;8.70;99.90;;;;;;5005774;28;20230;-70
2021/12/19 14:21:31;;;;;;;7.43;3.10;;;8.70;99.90;;;;;;5013292;28;20248;-68
2021/12/19 14:24:08;;;;;;;6.70;3.35;;;8.70;99.90;;;;;;5013027;28;20238;-70
2021/12/19 14:26:35;;;;;;;10.10;3.00;;;8.70;99.90;;;;;;5013127;28;20233;-69
2021/12/19 14:29:02;;;;;;;4.15;2.40;;;8.70;99.90;;;;;;5012589;28;20735;-68
2021/12/19 14:31:47;;;;;;;2.35;2.25;;;8.70;99.90;;;;;;5013094;28;20211;-69
2021/12/19 14:34:22;;;;;;;1.95;1.60;;;8.70;99.90;;;;;;5012810;28;20294;-69
2021/12/19 14:36:49;;;;;;;5.15;2.88;;;8.70;99.90;;;;;;5012985;28;20223;-69
2021/12/19 14:39:24;;;;;;;5.55;2.50;;;8.60;99.90;;;;;;5013080;28;20261;-70
2021/12/19 14:41:51;;;;;;;3.33;1.67;;;8.60;99.90;;;;;;5012560;28;20215;-69
2021/12/19 14:44:20;;;;;;;6.40;1.80;;;8.60;99.90;;;;;;5012180;28;20768;-68
2021/12/19 14:46:49;;;;;;;9.57;2.50;;;8.60;99.90;;;;;;5012901;28;20330;-68
2021/12/19 14:49:16;;;;;;;6.25;2.05;;;8.60;99.90;;;;;;5012035;28;20288;-68
2021/12/19 14:51:43;;;;;;;9.73;2.40;;;8.60;99.90;;;;;;5012557;28;20234;-68
2021/12/19 14:54:09;;;;;;;3.65;2.55;;;8.60;99.90;;;;;;5012382;28;20734;-68
2021/12/19 14:56:36;;;;;;;4.45;1.95;;;8.60;99.90;;;;;;5012220;28;20239;-68
2021/12/19 14:59:05;;;;;;;2.10;1.23;;;8.60;99.90;;;;;;5011959;28;20321;-68
2021/12/19 15:01:35;;;;;;;7.95;1.95;;;8.50;99.90;;;;;;5012230;28;20211;-68
2021/12/19 15:04:06;;;;;;;4.18;1.90;;;8.50;99.90;;;;;;5012391;28;20226;-68
2021/12/19 15:06:38;;;;;;;3.13;1.85;;;8.50;99.90;;;;;;5012626;28;20250;-68
2021/12/19 15:09:07;;;;;;;8.27;2.15;;;8.50;99.90;;;;;;5012302;28;20211;-68
2021/12/19 15:11:35;;;;;;;13.65;3.80;;;8.50;99.90;;;;;;5011817;28;20215;-68
2021/12/19 15:14:02;;;;;;;7.40;3.00;;;8.50;99.90;;;;;;5011723;28;20290;-68
2021/12/19 15:16:30;;;;;;;7.80;3.20;;;8.40;99.90;;;;;;5012053;28;20239;-68
2021/12/19 15:18:56;;;;;;;4.07;2.67;;;8.40;99.90;;;;;;5012161;28;20655;-68
2021/12/19 15:21:26;;;;;;;11.45;2.58;;;8.40;99.90;;;;;;5012050;28;20642;-67
2021/12/19 15:23:53;;;;;;;8.80;2.55;;;8.40;99.90;;;;;;5011618;28;20733;-67
2021/12/19 15:26:20;;;;;;;5.40;2.40;;;8.40;99.90;;;;;;5011754;28;20259;-68
2021/12/19 15:28:49;;;;;;;2.70;2.47;;;8.40;99.90;;;;;;5011585;28;20265;-67
2021/12/19 15:31:18;;;;;;;9.43;2.20;;;8.30;99.90;;;;;;5012114;28;20211;-68
2021/12/19 15:33:45;;;;;;;7.20;2.13;;;8.30;99.90;;;;;;5012042;28;20207;-68
2021/12/19 15:36:12;;;;;;;8.25;2.08;;;8.30;99.90;;;;;;5011912;28;20676;-68
2021/12/19 15:38:41;;;;;;;8.65;2.80;;;8.30;99.90;;;;;;5007002;28;20656;-68
2021/12/19 15:41:08;;;;;;;8.93;3.75;;;8.30;99.90;;;;;;5011525;28;20203;-67
2021/12/19 15:43:35;;;;;;;8.60;2.60;;;8.20;99.90;;;;;;5010904;28;20230;-67
2021/12/19 15:46:02;;;;;;;6.15;2.80;;;8.20;99.90;;;;;;5011639;28;20696;-67
2021/12/19 15:48:29;;;;;;;9.68;2.72;;;8.20;99.90;;;;;;5011457;28;20207;-67
2021/12/19 15:50:55;;;;;;;6.63;3.22;;;8.20;99.90;;;;;;5011640;28;20207;-67
2021/12/19 15:53:22;;;;;;;9.90;3.35;;;8.20;99.90;;;;;;5011505;28;20223;-67
2021/12/19 15:55:50;;;;;;;11.77;3.50;;;8.20;99.90;;;;;;5011543;28;20298;-67
2021/12/19 15:58:18;;;;;;;12.27;3.10;;;8.10;99.90;;;;;;5010856;28;20227;-67
2021/12/19 16:00:46;;;;;;;6.70;2.45;;;8.10;99.90;;;;;;5011915;28;20289;-67
2021/12/19 16:03:13;;;;;;;10.30;2.45;;;8.10;99.90;;;;;;5011275;28;20257;-67
2021/12/19 16:05:41;;;;;;;11.43;3.05;;;8.10;99.90;;;;;;5011770;28;20211;-67
2021/12/19 16:08:07;;;;;;;9.52;2.03;;;8.10;99.90;;;;;;5011423;28;20236;-67
2021/12/19 16:10:34;;;;;;;7.15;3.00;;;8.00;99.90;;;;;;5011565;28;20254;-68
2021/12/19 16:13:02;;;;;;;8.50;2.55;;;8.00;99.90;;;;;;5010634;28;20207;-68
2021/12/19 16:15:29;;;;;;;12.05;4.38;;;8.00;99.90;;;;;;5011647;28;20207;-67
2021/12/19 16:17:57;;;;;;;8.65;3.15;;;8.00;99.90;;;;;;5003228;28;20239;-67
2021/12/19 16:20:25;;;;;;;7.80;3.30;;;8.00;99.90;;;;;;5010945;28;20305;-67
2021/12/19 16:22:52;;;;;;;15.57;3.85;;;8.00;99.90;;;;;;5010772;28;20214;-67
2021/12/19 16:25:19;;;;;;;8.63;3.10;;;7.90;99.90;;;;;;5011071;28;20218;-67
2021/12/19 16:27:46;;;;;;;13.00;3.88;;;8.00;99.90;;;;;;5009937;28;20239;-67
2021/12/19 16:30:18;;;;;;;11.20;3.25;;;7.90;99.90;;;;;;5010995;28;20620;-67
2021/12/19 16:32:45;;;;;;;14.50;4.15;;;7.90;99.90;;;;;;5010882;28;20297;-67
2021/12/19 16:35:11;;;;;;;10.32;3.60;;;7.80;99.90;;;;;;5010083;28;20222;-67
2021/12/19 16:37:38;;;;;;;13.90;3.85;;;7.80;99.90;;;;;;5011181;28;20308;-67
2021/12/19 16:40:09;;;;;;;15.77;4.00;;;7.80;99.90;;;;;;5010885;28;20335;-68
2021/12/19 16:45:21;;;;;;;12.60;3.85;;;7.80;99.90;;;;;;5011484;28;20198;-68
2021/12/19 16:47:48;;;;;;;15.18;4.18;;;7.80;99.90;;;;;;5011037;28;20277;-68
2021/12/19 16:50:14;;;;;;;19.77;4.97;;;7.70;99.90;;;;;;5011352;28;20207;-67
2021/12/19 16:52:41;;;;;;;15.15;4.28;;;7.70;99.90;;;;;;5011327;28;20234;-69
2021/12/19 16:55:08;;;;;;;7.88;3.88;;;7.70;99.90;;;;;;5011128;28;20662;-69
2021/12/19 16:57:35;;;;;;;10.13;3.75;;;7.60;99.90;;;;;;5010049;28;20230;-69
2021/12/19 17:00:03;;;;;;;7.57;3.78;;;7.60;99.90;;;;;;5010993;28;20207;-69
2021/12/19 17:02:31;;;;;;;15.98;3.78;;;7.50;99.90;;;;;;5011040;28;20211;-69
2021/12/19 17:04:58;;;;;;;16.15;4.30;;;7.40;99.90;;;;;;5010770;28;20231;-69
2021/12/19 17:07:25;;;;;;;10.35;4.35;;;7.30;99.90;;;;;;5008808;28;20230;-70
2021/12/19 17:09:51;;;;;;;6.07;3.00;;;7.30;99.90;;;;;;5010353;28;20255;-69
2021/12/19 17:12:19;;;;;;;9.23;3.40;;;7.20;99.90;;;;;;5009892;28;20203;-69
2021/12/19 17:14:46;;;;;;;11.27;4.15;;;7.20;99.90;;;;;;5010801;28;20210;-70
2021/12/19 17:17:14;;;;;;;12.80;4.95;;;7.20;99.90;;;;;;5010461;28;20255;-69
2021/12/19 17:19:44;;;;;;;14.20;3.90;;;7.10;99.90;;;;;;5011115;23;20290;-70
2021/12/19 17:22:12;;;;;;;17.05;3.95;;;7.00;99.90;;;;;;4971413;28;20695;-70
2021/12/19 17:24:39;;;;;;;14.57;4.88;;;7.00;99.90;;;;;;4971391;28;20248;-69
2021/12/19 17:27:06;;;;;;;21.83;5.85;;;7.00;99.90;;;;;;4970263;28;20209;-69
2021/12/19 17:29:32;;;;;;;18.27;4.18;;;7.00;99.90;;;;;;4970963;28;20323;-70
2021/12/19 17:31:59;;;;;;;14.38;5.13;;;7.00;99.90;;;;;;4971399;28;20618;-71
2021/12/19 17:34:26;;;;;;;13.40;4.90;;;6.90;99.90;;;;;;4971444;28;20647;-70
2021/12/19 17:36:54;;;;;;;12.98;4.05;;;6.90;99.90;;;;;;4971756;28;20416;-69
2021/12/19 17:39:25;;;;;;;16.45;4.78;;;6.90;99.90;;;;;;4966203;28;20589;-69
2021/12/19 17:41:53;;;;;;;24.35;8.23;;;6.90;99.90;;;;;;4970521;28;20237;-69
2021/12/19 17:44:20;;;;;;;20.33;5.65;;;6.80;99.90;;;;;;4971160;28;20327;-69
2021/12/19 17:46:47;;;;;;;19.63;5.63;;;6.80;99.90;;;;;;4974409;28;20209;-69
2021/12/19 17:49:14;;;;;;;9.50;4.07;;;6.80;99.90;;;;;;4974838;28;20564;-69
2021/12/19 17:51:41;;;;;;;18.20;5.30;;;6.80;99.90;;;;;;4974820;28;20641;-69
2021/12/19 17:54:09;;;;;;;12.38;4.82;;;6.70;99.90;;;;;;4975083;28;20216;-68
2021/12/19 17:56:36;;;;;;;15.73;4.28;;;6.70;99.90;;;;;;4974445;28;20221;-70
2021/12/19 17:59:03;;;;;;;17.85;4.85;;;6.70;99.90;;;;;;4974665;28;20621;-67
2021/12/19 18:01:30;;;;;;;15.30;4.88;;;6.60;99.90;;;;;;4974898;28;20271;-71
2021/12/19 18:03:58;;;;;;;18.30;5.28;;;6.60;99.90;;;;;;4974737;28;20704;-68
2021/12/19 18:06:25;;;;;;;14.20;4.15;;;6.60;99.90;;;;;;4974896;28;20205;-68
2021/12/19 18:08:52;;;;;;;15.68;4.45;;;6.50;99.90;;;;;;4974534;28;20703;-70
2021/12/19 18:11:20;;;;;;;13.38;3.47;;;6.50;99.90;;;;;;4974243;28;20239;-69
2021/12/19 18:13:48;;;;;;;12.50;6.15;;;6.40;99.90;;;;;;4975035;28;20764;-69
2021/12/19 18:16:16;;;;;;;15.50;4.65;;;6.40;99.90;;;;;;4975107;28;20307;-71
2021/12/19 18:18:43;;;;;;;12.35;4.60;;;6.30;99.90;;;;;;4967924;28;20203;-69
2021/12/19 18:21:11;;;;;;;7.05;4.65;;;6.30;99.90;;;;;;4974594;28;20240;-70
2021/12/19 18:23:38;;;;;;;12.30;5.78;;;6.20;99.90;;;;;;4974505;28;20255;-70
2021/12/19 18:26:07;;;;;;;11.98;5.13;;;6.10;99.90;;;;;;4974574;28;20738;-70
2021/12/19 18:28:38;;;;;;;13.60;7.68;;;6.10;99.90;;;;;;4973631;28;20267;-70
2021/12/19 18:31:05;;;;;;;21.48;10.80;;;6.10;99.90;;;;;;4974521;28;20228;-70